Terminal Aerodrome Forecast
Issued by NWS

Current Version | Previous Version | Text Only | Print | Product List | Glossary On
Versions: 1 2 3 4 5 6 7 8 9 10 11 12 13 14 15 16 17 18 19 20 21 22 23 24 25 26 27 28 29 30 31 32 33 34 35 36 37 38 39 40
000
FTAK31 PANC 010537
TAFADL
TAF
PADL 010537Z 0106/0206 13020G30KT P6SM VCSH SCT040 OVC080
      WS020/15055KT
     FM010900 11025G35KT 4SM -RA SCT008 BKN015 OVC025 WS020/13055KT
     FM011200 11028G42KT 3SM -RA BR BKN008 OVC015 WS020/13060KT
     FM012000 08022G32KT 4SM -RA BR OVC015
     FM012300 09015G22KT 3SM -SHRA BR BKN008 OVC012=

USA.gov is the U.S. government's official web portal to all federal, state and local government web resources and services.